sensor_id;sensor_type;location;lat;lon;timestamp;temperature;humidity
7192;DHT22;3637;51.494;11.958;2023-04-24T00:00:17;14.00;99.90
7192;DHT22;3637;51.494;11.958;2023-04-24T00:03:19;14.00;99.90
7192;DHT22;3637;51.494;11.958;2023-04-24T00:06:21;14.00;99.90
7192;DHT22;3637;51.494;11.958;2023-04-24T00:09:25;14.40;99.90
7192;DHT22;3637;51.494;11.958;2023-04-24T00:12:27;13.90;99.90
7192;DHT22;3637;51.494;11.958;2023-04-24T00:15:29;14.10;99.90
7192;DHT22;3637;51.494;11.958;2023-04-24T00:18:31;13.90;99.90
7192;DHT22;3637;51.494;11.958;2023-04-24T00:21:33;13.90;99.90
7192;DHT22;3637;51.494;11.958;2023-04-24T00:24:36;14.20;99.90
7192;DHT22;3637;51.494;11.958;2023-04-24T00:27:38;14.50;99.90
7192;DHT22;3637;51.494;11.958;2023-04-24T00:30:42;13.60;99.90
7192;DHT22;3637;51.494;11.958;2023-04-24T00:33:44;13.10;99.90
7192;DHT22;3637;51.494;11.958;2023-04-24T00:36:46;14.30;99.90
7192;DHT22;3637;51.494;11.958;2023-04-24T00:39:50;13.50;99.90
7192;DHT22;3637;51.494;11.958;2023-04-24T00:42:54;13.30;99.90
7192;DHT22;3637;51.494;11.958;2023-04-24T00:45:56;13.80;99.90
7192;DHT22;3637;51.494;11.958;2023-04-24T00:49:02;12.70;99.90
7192;DHT22;3637;51.494;11.958;2023-04-24T00:52:04;13.30;99.90
7192;DHT22;3637;51.494;11.958;2023-04-24T00:55:10;14.40;99.90
7192;DHT22;3637;51.494;11.958;2023-04-24T00:58:12;13.20;99.90
7192;DHT22;3637;51.494;11.958;2023-04-24T01:01:14;13.20;99.90
7192;DHT22;3637;51.494;11.958;2023-04-24T01:04:17;13.20;99.90
7192;DHT22;3637;51.494;11.958;2023-04-24T01:07:20;13.20;99.90
7192;DHT22;3637;51.494;11.958;2023-04-24T01:10:24;13.20;99.90
7192;DHT22;3637;51.494;11.958;2023-04-24T01:13:27;13.00;99.90
7192;DHT22;3637;51.494;11.958;2023-04-24T01:16:29;13.10;99.90
7192;DHT22;3637;51.494;11.958;2023-04-24T01:19:31;12.90;99.90
7192;DHT22;3637;51.494;11.958;2023-04-24T01:22:35;14.00;99.90
7192;DHT22;3637;51.494;11.958;2023-04-24T01:25:37;13.20;99.90
7192;DHT22;3637;51.494;11.958;2023-04-24T01:28:39;12.90;99.90
7192;DHT22;3637;51.494;11.958;2023-04-24T01:31:41;12.40;99.90
7192;DHT22;3637;51.494;11.958;2023-04-24T01:34:44;12.90;99.90
7192;DHT22;3637;51.494;11.958;2023-04-24T01:37:48;12.80;99.90
7192;DHT22;3637;51.494;11.958;2023-04-24T01:40:49;13.20;99.90
7192;DHT22;3637;51.494;11.958;2023-04-24T01:43:52;13.30;99.90
7192;DHT22;3637;51.494;11.958;2023-04-24T01:46:55;12.80;99.90
7192;DHT22;3637;51.494;11.958;2023-04-24T01:49:59;12.80;99.90
7192;DHT22;3637;51.494;11.958;2023-04-24T01:53:02;13.20;99.90
7192;DHT22;3637;51.494;11.958;2023-04-24T01:56:05;12.70;99.90
7192;DHT22;3637;51.494;11.958;2023-04-24T01:59:07;12.70;99.90
7192;DHT22;3637;51.494;11.958;2023-04-24T02:02:10;13.20;99.90
7192;DHT22;3637;51.494;11.958;2023-04-24T02:05:12;12.70;99.90
7192;DHT22;3637;51.494;11.958;2023-04-24T02:08:16;12.60;99.90
7192;DHT22;3637;51.494;11.958;2023-04-24T02:11:17;12.60;99.90
7192;DHT22;3637;51.494;11.958;2023-04-24T02:14:19;13.10;99.90
7192;DHT22;3637;51.494;11.958;2023-04-24T02:17:21;12.60;99.90
7192;DHT22;3637;51.494;11.958;2023-04-24T02:20:23;13.10;99.90
7192;DHT22;3637;51.494;11.958;2023-04-24T02:23:26;12.50;99.90
7192;DHT22;3637;51.494;11.958;2023-04-24T02:26:28;12.40;99.90
7192;DHT22;3637;51.494;11.958;2023-04-24T02:29:32;12.50;99.90
7192;DHT22;3637;51.494;11.958;2023-04-24T02:32:34;12.50;99.90
7192;DHT22;3637;51.494;11.958;2023-04-24T02:35:36;12.40;99.90
7192;DHT22;3637;51.494;11.958;2023-04-24T02:38:39;13.40;99.90
7192;DHT22;3637;51.494;11.958;2023-04-24T02:41:41;13.10;99.90
7192;DHT22;3637;51.494;11.958;2023-04-24T02:44:43;12.20;99.90
7192;DHT22;3637;51.494;11.958;2023-04-24T02:47:45;12.20;99.90
7192;DHT22;3637;51.494;11.958;2023-04-24T02:50:47;12.50;99.90
7192;DHT22;3637;51.494;11.958;2023-04-24T02:53:50;13.30;99.90
7192;DHT22;3637;51.494;11.958;2023-04-24T02:56:55;13.40;99.90
7192;DHT22;3637;51.494;11.958;2023-04-24T03:00:00;12.30;99.90
7192;DHT22;3637;51.494;11.958;2023-04-24T03:03:02;12.30;99.90
7192;DHT22;3637;51.494;11.958;2023-04-24T03:06:05;12.20;99.90
7192;DHT22;3637;51.494;11.958;2023-04-24T03:09:09;12.20;99.90
7192;DHT22;3637;51.494;11.958;2023-04-24T03:12:11;12.20;99.90
7192;DHT22;3637;51.494;11.958;2023-04-24T03:15:13;12.20;99.90
7192;DHT22;3637;51.494;11.958;2023-04-24T03:18:15;13.30;99.90
7192;DHT22;3637;51.494;11.958;2023-04-24T03:21:17;13.10;99.90
7192;DHT22;3637;51.494;11.958;2023-04-24T03:24:20;13.40;99.90
7192;DHT22;3637;51.494;11.958;2023-04-24T03:27:23;12.30;99.90
7192;DHT22;3637;51.494;11.958;2023-04-24T03:30:24;12.80;99.90
7192;DHT22;3637;51.494;11.958;2023-04-24T03:33:26;12.40;99.90
7192;DHT22;3637;51.494;11.958;2023-04-24T03:36:28;12.80;99.90
7192;DHT22;3637;51.494;11.958;2023-04-24T03:39:32;13.00;99.90
7192;DHT22;3637;51.494;11.958;2023-04-24T03:42:34;12.30;99.90
7192;DHT22;3637;51.494;11.958;2023-04-24T03:45:36;12.30;99.90
7192;DHT22;3637;51.494;11.958;2023-04-24T03:48:38;12.60;99.90
7192;DHT22;3637;51.494;11.958;2023-04-24T03:51:43;12.20;99.90
7192;DHT22;3637;51.494;11.958;2023-04-24T03:54:46;12.20;99.90
7192;DHT22;3637;51.494;11.958;2023-04-24T03:57:48;12.20;99.90
7192;DHT22;3637;51.494;11.958;2023-04-24T04:00:50;12.40;99.90
7192;DHT22;3637;51.494;11.958;2023-04-24T04:03:52;12.20;99.90
7192;DHT22;3637;51.494;11.958;2023-04-24T04:06:54;12.20;99.90
7192;DHT22;3637;51.494;11.958;2023-04-24T04:09:57;12.20;99.90
7192;DHT22;3637;51.494;11.958;2023-04-24T04:12:59;12.20;99.90
7192;DHT22;3637;51.494;11.958;2023-04-24T04:16:01;11.90;99.90
7192;DHT22;3637;51.494;11.958;2023-04-24T04:19:03;12.20;99.90
7192;DHT22;3637;51.494;11.958;2023-04-24T04:22:04;12.70;99.90
7192;DHT22;3637;51.494;11.958;2023-04-24T04:25:10;12.10;99.90
7192;DHT22;3637;51.494;11.958;2023-04-24T04:28:15;12.20;99.90
7192;DHT22;3637;51.494;11.958;2023-04-24T04:31:20;12.50;99.90
7192;DHT22;3637;51.494;11.958;2023-04-24T04:34:23;12.20;99.90
7192;DHT22;3637;51.494;11.958;2023-04-24T04:37:25;12.30;99.90
7192;DHT22;3637;51.494;11.958;2023-04-24T04:40:30;12.00;99.90
7192;DHT22;3637;51.494;11.958;2023-04-24T04:43:32;12.00;99.90
7192;DHT22;3637;51.494;11.958;2023-04-24T04:46:35;12.40;99.90
7192;DHT22;3637;51.494;11.958;2023-04-24T04:49:37;12.10;99.90
7192;DHT22;3637;51.494;11.958;2023-04-24T04:52:40;12.50;99.90
7192;DHT22;3637;51.494;11.958;2023-04-24T04:55:43;12.20;99.90
7192;DHT22;3637;51.494;11.958;2023-04-24T04:58:45;12.20;99.90
7192;DHT22;3637;51.494;11.958;2023-04-24T05:01:46;12.30;99.90
7192;DHT22;3637;51.494;11.958;2023-04-24T05:04:48;13.30;99.90
7192;DHT22;3637;51.494;11.958;2023-04-24T05:07:50;12.70;99.90
7192;DHT22;3637;51.494;11.958;2023-04-24T05:10:54;13.30;99.90
7192;DHT22;3637;51.494;11.958;2023-04-24T05:13:56;14.10;99.90
7192;DHT22;3637;51.494;11.958;2023-04-24T05:17:00;13.00;99.90
7192;DHT22;3637;51.494;11.958;2023-04-24T05:20:02;12.80;99.90
7192;DHT22;3637;51.494;11.958;2023-04-24T05:23:05;12.70;99.90
7192;DHT22;3637;51.494;11.958;2023-04-24T05:26:09;12.70;99.90
7192;DHT22;3637;51.494;11.958;2023-04-24T05:29:11;12.70;99.90
7192;DHT22;3637;51.494;11.958;2023-04-24T05:32:13;14.10;99.90
7192;DHT22;3637;51.494;11.958;2023-04-24T05:35:15;12.80;99.90
7192;DHT22;3637;51.494;11.958;2023-04-24T05:38:17;12.90;99.90
7192;DHT22;3637;51.494;11.958;2023-04-24T05:41:21;13.00;99.90
7192;DHT22;3637;51.494;11.958;2023-04-24T05:44:23;13.00;99.90
7192;DHT22;3637;51.494;11.958;2023-04-24T05:47:25;13.20;99.90
7192;DHT22;3637;51.494;11.958;2023-04-24T05:50:27;13.30;99.90
7192;DHT22;3637;51.494;11.958;2023-04-24T05:53:29;13.80;99.90
7192;DHT22;3637;51.494;11.958;2023-04-24T05:56:32;13.40;99.90
7192;DHT22;3637;51.494;11.958;2023-04-24T05:59:35;13.50;99.90
7192;DHT22;3637;51.494;11.958;2023-04-24T06:02:36;13.60;99.90
7192;DHT22;3637;51.494;11.958;2023-04-24T06:05:38;13.60;99.90
7192;DHT22;3637;51.494;11.958;2023-04-24T06:08:40;14.90;99.90
7192;DHT22;3637;51.494;11.958;2023-04-24T06:11:44;13.70;99.90
7192;DHT22;3637;51.494;11.958;2023-04-24T06:14:46;14.00;99.90
7192;DHT22;3637;51.494;11.958;2023-04-24T06:17:48;13.80;99.90
7192;DHT22;3637;51.494;11.958;2023-04-24T06:20:50;13.90;99.90
7192;DHT22;3637;51.494;11.958;2023-04-24T06:23:52;14.10;99.90
7192;DHT22;3637;51.494;11.958;2023-04-24T06:26:55;14.20;99.90
7192;DHT22;3637;51.494;11.958;2023-04-24T06:29:58;14.00;99.90
7192;DHT22;3637;51.494;11.958;2023-04-24T06:33:00;13.80;99.90
7192;DHT22;3637;51.494;11.958;2023-04-24T06:36:02;13.10;99.90
7192;DHT22;3637;51.494;11.958;2023-04-24T06:39:04;14.00;99.90
7192;DHT22;3637;51.494;11.958;2023-04-24T06:42:07;14.00;99.90
7192;DHT22;3637;51.494;11.958;2023-04-24T06:45:10;14.00;99.90
7192;DHT22;3637;51.494;11.958;2023-04-24T06:48:12;13.90;99.90
7192;DHT22;3637;51.494;11.958;2023-04-24T06:51:13;14.30;99.90
7192;DHT22;3637;51.494;11.958;2023-04-24T06:54:15;15.10;99.90
7192;DHT22;3637;51.494;11.958;2023-04-24T06:57:19;14.50;99.90
7192;DHT22;3637;51.494;11.958;2023-04-24T07:00:21;14.00;99.90
7192;DHT22;3637;51.494;11.958;2023-04-24T07:03:24;14.00;99.90
7192;DHT22;3637;51.494;11.958;2023-04-24T07:06:26;14.50;99.90
7192;DHT22;3637;51.494;11.958;2023-04-24T07:09:31;14.00;99.90
7192;DHT22;3637;51.494;11.958;2023-04-24T07:12:34;14.60;99.90
7192;DHT22;3637;51.494;11.958;2023-04-24T07:15:36;15.00;99.90
7192;DHT22;3637;51.494;11.958;2023-04-24T07:18:38;14.20;99.90
7192;DHT22;3637;51.494;11.958;2023-04-24T07:21:40;14.70;99.90
7192;DHT22;3637;51.494;11.958;2023-04-24T07:24:42;14.60;99.90
7192;DHT22;3637;51.494;11.958;2023-04-24T07:27:45;14.30;99.90
7192;DHT22;3637;51.494;11.958;2023-04-24T07:30:48;14.80;99.90
7192;DHT22;3637;51.494;11.958;2023-04-24T07:33:50;14.50;99.90
7192;DHT22;3637;51.494;11.958;2023-04-24T07:36:52;15.30;99.90
7192;DHT22;3637;51.494;11.958;2023-04-24T07:39:54;14.80;99.90
7192;DHT22;3637;51.494;11.958;2023-04-24T07:42:59;14.80;99.90
7192;DHT22;3637;51.494;11.958;2023-04-24T07:46:01;14.80;99.90
7192;DHT22;3637;51.494;11.958;2023-04-24T07:49:04;14.80;99.90
7192;DHT22;3637;51.494;11.958;2023-04-24T07:52:06;14.70;99.90
7192;DHT22;3637;51.494;11.958;2023-04-24T07:55:08;15.10;99.90
7192;DHT22;3637;51.494;11.958;2023-04-24T07:58:11;15.30;99.90
7192;DHT22;3637;51.494;11.958;2023-04-24T08:01:13;14.90;99.90
7192;DHT22;3637;51.494;11.958;2023-04-24T08:04:15;15.40;99.90
7192;DHT22;3637;51.494;11.958;2023-04-24T08:07:18;15.00;99.90
7192;DHT22;3637;51.494;11.958;2023-04-24T08:10:21;15.10;99.90
7192;DHT22;3637;51.494;11.958;2023-04-24T08:13:24;14.90;99.90
7192;DHT22;3637;51.494;11.958;2023-04-24T08:16:26;14.90;99.90
7192;DHT22;3637;51.494;11.958;2023-04-24T08:19:30;14.80;99.90
7192;DHT22;3637;51.494;11.958;2023-04-24T08:22:32;14.90;99.90
7192;DHT22;3637;51.494;11.958;2023-04-24T08:25:34;14.90;99.90
7192;DHT22;3637;51.494;11.958;2023-04-24T08:28:37;14.90;99.90
7192;DHT22;3637;51.494;11.958;2023-04-24T08:31:39;15.00;99.90
7192;DHT22;3637;51.494;11.958;2023-04-24T08:34:41;15.40;99.90
7192;DHT22;3637;51.494;11.958;2023-04-24T08:37:42;15.10;99.90
7192;DHT22;3637;51.494;11.958;2023-04-24T08:40:44;15.10;99.90
7192;DHT22;3637;51.494;11.958;2023-04-24T08:43:50;16.10;99.90
7192;DHT22;3637;51.494;11.958;2023-04-24T08:46:53;15.10;99.90
7192;DHT22;3637;51.494;11.958;2023-04-24T08:49:56;15.60;99.90
7192;DHT22;3637;51.494;11.958;2023-04-24T08:53:03;14.80;99.90
7192;DHT22;3637;51.494;11.958;2023-04-24T08:56:05;14.90;99.90
7192;DHT22;3637;51.494;11.958;2023-04-24T08:59:09;15.40;99.90
7192;DHT22;3637;51.494;11.958;2023-04-24T09:02:12;15.10;99.90
7192;DHT22;3637;51.494;11.958;2023-04-24T09:05:18;14.70;99.90
7192;DHT22;3637;51.494;11.958;2023-04-24T09:08:24;14.80;99.90
7192;DHT22;3637;51.494;11.958;2023-04-24T09:11:27;14.20;99.90
7192;DHT22;3637;51.494;11.958;2023-04-24T09:14:32;15.60;99.90
7192;DHT22;3637;51.494;11.958;2023-04-24T09:17:36;15.60;99.40
7192;DHT22;3637;51.494;11.958;2023-04-24T09:21:02;15.20;99.20
7192;DHT22;3637;51.494;11.958;2023-04-24T09:24:07;15.30;98.90
7192;DHT22;3637;51.494;11.958;2023-04-24T09:27:11;15.40;97.10
7192;DHT22;3637;51.494;11.958;2023-04-24T09:30:21;15.40;96.70
7192;DHT22;3637;51.494;11.958;2023-04-24T09:33:23;15.50;97.20
7192;DHT22;3637;51.494;11.958;2023-04-24T09:36:27;15.50;96.00
7192;DHT22;3637;51.494;11.958;2023-04-24T09:39:30;15.50;96.30
7192;DHT22;3637;51.494;11.958;2023-04-24T09:42:32;15.90;94.90
7192;DHT22;3637;51.494;11.958;2023-04-24T09:45:37;15.50;94.30
7192;DHT22;3637;51.494;11.958;2023-04-24T09:48:39;15.60;93.30
7192;DHT22;3637;51.494;11.958;2023-04-24T09:51:41;15.60;92.70
7192;DHT22;3637;51.494;11.958;2023-04-24T09:54:52;15.80;92.80
7192;DHT22;3637;51.494;11.958;2023-04-24T09:57:56;15.90;91.90
7192;DHT22;3637;51.494;11.958;2023-04-24T10:01:01;16.40;91.70
7192;DHT22;3637;51.494;11.958;2023-04-24T10:04:03;15.80;91.30
7192;DHT22;3637;51.494;11.958;2023-04-24T10:07:05;15.80;92.70
7192;DHT22;3637;51.494;11.958;2023-04-24T10:10:08;15.90;91.30
7192;DHT22;3637;51.494;11.958;2023-04-24T10:13:13;15.60;91.40
7192;DHT22;3637;51.494;11.958;2023-04-24T10:16:17;15.70;91.80
7192;DHT22;3637;51.494;11.958;2023-04-24T10:19:19;15.40;92.70
7192;DHT22;3637;51.494;11.958;2023-04-24T10:22:21;15.60;91.80
7192;DHT22;3637;51.494;11.958;2023-04-24T10:25:26;15.90;92.10
7192;DHT22;3637;51.494;11.958;2023-04-24T10:28:28;16.10;91.30
7192;DHT22;3637;51.494;11.958;2023-04-24T10:31:33;16.00;90.80
7192;DHT22;3637;51.494;11.958;2023-04-24T10:34:36;16.20;91.10
7192;DHT22;3637;51.494;11.958;2023-04-24T10:37:39;15.70;91.20
7192;DHT22;3637;51.494;11.958;2023-04-24T10:40:42;15.80;90.80
7192;DHT22;3637;51.494;11.958;2023-04-24T10:43:44;15.50;90.70
7192;DHT22;3637;51.494;11.958;2023-04-24T10:46:53;15.40;90.90
7192;DHT22;3637;51.494;11.958;2023-04-24T10:49:59;15.60;90.60
7192;DHT22;3637;51.494;11.958;2023-04-24T10:53:12;15.90;90.00
7192;DHT22;3637;51.494;11.958;2023-04-24T10:56:16;15.50;90.60
7192;DHT22;3637;51.494;11.958;2023-04-24T10:59:24;15.70;90.80
7192;DHT22;3637;51.494;11.958;2023-04-24T11:02:37;15.90;90.40
7192;DHT22;3637;51.494;11.958;2023-04-24T11:05:59;16.00;89.50
7192;DHT22;3637;51.494;11.958;2023-04-24T11:09:04;16.00;90.60
7192;DHT22;3637;51.494;11.958;2023-04-24T11:12:08;16.40;90.00
7192;DHT22;3637;51.494;11.958;2023-04-24T11:15:11;16.00;89.50
7192;DHT22;3637;51.494;11.958;2023-04-24T11:18:18;15.70;87.20
7192;DHT22;3637;51.494;11.958;2023-04-24T11:21:20;15.90;87.40
7192;DHT22;3637;51.494;11.958;2023-04-24T11:24:29;16.10;86.60
7192;DHT22;3637;51.494;11.958;2023-04-24T11:27:32;16.20;85.60
7192;DHT22;3637;51.494;11.958;2023-04-24T11:30:40;16.80;84.30
7192;DHT22;3637;51.494;11.958;2023-04-24T11:33:43;17.60;85.20
7192;DHT22;3637;51.494;11.958;2023-04-24T11:36:46;16.40;83.50
7192;DHT22;3637;51.494;11.958;2023-04-24T11:39:51;17.60;83.60
7192;DHT22;3637;51.494;11.958;2023-04-24T11:42:53;17.30;83.10
7192;DHT22;3637;51.494;11.958;2023-04-24T11:45:59;16.60;84.20
7192;DHT22;3637;51.494;11.958;2023-04-24T11:49:03;16.80;83.50
7192;DHT22;3637;51.494;11.958;2023-04-24T11:52:05;16.60;84.10
7192;DHT22;3637;51.494;11.958;2023-04-24T11:55:23;16.60;84.30
7192;DHT22;3637;51.494;11.958;2023-04-24T11:58:26;16.50;85.90
7192;DHT22;3637;51.494;11.958;2023-04-24T12:01:28;16.70;83.70
7192;DHT22;3637;51.494;11.958;2023-04-24T12:04:38;16.70;83.40
7192;DHT22;3637;51.494;11.958;2023-04-24T12:07:41;16.40;81.90
7192;DHT22;3637;51.494;11.958;2023-04-24T12:10:44;16.30;82.80
7192;DHT22;3637;51.494;11.958;2023-04-24T12:13:46;16.30;82.00
7192;DHT22;3637;51.494;11.958;2023-04-24T12:16:48;16.60;82.60
7192;DHT22;3637;51.494;11.958;2023-04-24T12:19:51;16.40;81.30
7192;DHT22;3637;51.494;11.958;2023-04-24T12:23:00;16.50;81.40
7192;DHT22;3637;51.494;11.958;2023-04-24T12:26:04;16.50;80.10
7192;DHT22;3637;51.494;11.958;2023-04-24T12:29:05;16.90;81.90
7192;DHT22;3637;51.494;11.958;2023-04-24T12:32:15;16.70;81.80
7192;DHT22;3637;51.494;11.958;2023-04-24T12:35:21;16.80;79.20
7192;DHT22;3637;51.494;11.958;2023-04-24T12:38:25;16.80;79.60
7192;DHT22;3637;51.494;11.958;2023-04-24T12:41:31;16.70;80.30
7192;DHT22;3637;51.494;11.958;2023-04-24T12:44:33;17.50;79.80
7192;DHT22;3637;51.494;11.958;2023-04-24T12:47:35;16.80;80.70
7192;DHT22;3637;51.494;11.958;2023-04-24T12:50:39;16.80;80.90
7192;DHT22;3637;51.494;11.958;2023-04-24T12:53:41;16.70;80.70
7192;DHT22;3637;51.494;11.958;2023-04-24T12:56:45;16.80;81.20
7192;DHT22;3637;51.494;11.958;2023-04-24T12:59:47;17.00;81.80
7192;DHT22;3637;51.494;11.958;2023-04-24T13:02:52;17.10;80.40
7192;DHT22;3637;51.494;11.958;2023-04-24T13:05:55;17.50;81.20
7192;DHT22;3637;51.494;11.958;2023-04-24T13:08:57;17.10;79.80
7192;DHT22;3637;51.494;11.958;2023-04-24T13:12:02;17.20;77.10
7192;DHT22;3637;51.494;11.958;2023-04-24T13:15:06;17.10;78.20
7192;DHT22;3637;51.494;11.958;2023-04-24T13:18:08;16.90;77.10
7192;DHT22;3637;51.494;11.958;2023-04-24T13:21:11;16.90;78.30
7192;DHT22;3637;51.494;11.958;2023-04-24T13:24:13;17.00;80.20
7192;DHT22;3637;51.494;11.958;2023-04-24T13:27:16;17.30;80.00
7192;DHT22;3637;51.494;11.958;2023-04-24T13:30:18;16.60;79.90
7192;DHT22;3637;51.494;11.958;2023-04-24T13:33:20;16.40;81.70
7192;DHT22;3637;51.494;11.958;2023-04-24T13:36:23;16.40;82.80
7192;DHT22;3637;51.494;11.958;2023-04-24T13:39:26;17.10;84.10
7192;DHT22;3637;51.494;11.958;2023-04-24T13:42:28;16.40;83.10
7192;DHT22;3637;51.494;11.958;2023-04-24T13:45:30;16.50;83.50
7192;DHT22;3637;51.494;11.958;2023-04-24T13:48:32;16.30;84.50
7192;DHT22;3637;51.494;11.958;2023-04-24T13:51:38;16.30;84.70
7192;DHT22;3637;51.494;11.958;2023-04-24T13:54:40;16.20;86.20
7192;DHT22;3637;51.494;11.958;2023-04-24T13:57:42;16.10;86.20
7192;DHT22;3637;51.494;11.958;2023-04-24T14:00:44;16.40;87.00
7192;DHT22;3637;51.494;11.958;2023-04-24T14:03:46;16.20;84.90
7192;DHT22;3637;51.494;11.958;2023-04-24T14:06:49;16.10;85.70
7192;DHT22;3637;51.494;11.958;2023-04-24T14:09:51;15.90;87.20
7192;DHT22;3637;51.494;11.958;2023-04-24T14:12:53;16.60;88.40
7192;DHT22;3637;51.494;11.958;2023-04-24T14:15:55;16.00;89.60
7192;DHT22;3637;51.494;11.958;2023-04-24T14:19:00;15.50;90.40
7192;DHT22;3637;51.494;11.958;2023-04-24T14:22:03;15.50;90.80
7192;DHT22;3637;51.494;11.958;2023-04-24T14:25:10;15.50;90.70
7192;DHT22;3637;51.494;11.958;2023-04-24T14:28:13;15.00;91.60
7192;DHT22;3637;51.494;11.958;2023-04-24T14:31:15;14.90;92.50
7192;DHT22;3637;51.494;11.958;2023-04-24T14:34:17;14.80;92.80
7192;DHT22;3637;51.494;11.958;2023-04-24T14:37:21;14.70;93.40
7192;DHT22;3637;51.494;11.958;2023-04-24T14:40:23;14.60;93.90
7192;DHT22;3637;51.494;11.958;2023-04-24T14:43:25;14.20;93.30
7192;DHT22;3637;51.494;11.958;2023-04-24T14:46:26;14.40;93.70
7192;DHT22;3637;51.494;11.958;2023-04-24T14:49:28;13.80;93.20
7192;DHT22;3637;51.494;11.958;2023-04-24T14:52:32;14.30;93.10
7192;DHT22;3637;51.494;11.958;2023-04-24T14:55:34;14.10;92.60
7192;DHT22;3637;51.494;11.958;2023-04-24T14:58:36;14.10;93.20
7192;DHT22;3637;51.494;11.958;2023-04-24T15:01:38;14.10;93.30
7192;DHT22;3637;51.494;11.958;2023-04-24T15:04:40;14.00;93.20
7192;DHT22;3637;51.494;11.958;2023-04-24T15:07:43;14.40;93.10
7192;DHT22;3637;51.494;11.958;2023-04-24T15:10:47;14.10;92.60
7192;DHT22;3637;51.494;11.958;2023-04-24T15:13:49;14.10;92.80
7192;DHT22;3637;51.494;11.958;2023-04-24T15:16:51;14.20;92.60
7192;DHT22;3637;51.494;11.958;2023-04-24T15:19:53;13.90;91.70
7192;DHT22;3637;51.494;11.958;2023-04-24T15:22:56;13.90;91.90
7192;DHT22;3637;51.494;11.958;2023-04-24T15:25:59;13.80;92.30
7192;DHT22;3637;51.494;11.958;2023-04-24T15:29:02;14.20;92.70
7192;DHT22;3637;51.494;11.958;2023-04-24T15:32:04;13.90;93.10
7192;DHT22;3637;51.494;11.958;2023-04-24T15:35:06;13.80;92.70
7192;DHT22;3637;51.494;11.958;2023-04-24T15:38:10;13.80;93.40
7192;DHT22;3637;51.494;11.958;2023-04-24T15:41:12;15.40;93.80
7192;DHT22;3637;51.494;11.958;2023-04-24T15:44:13;13.80;92.90
7192;DHT22;3637;51.494;11.958;2023-04-24T15:47:15;13.60;92.90
7192;DHT22;3637;51.494;11.958;2023-04-24T15:50:17;14.30;92.70
7192;DHT22;3637;51.494;11.958;2023-04-24T15:53:23;13.90;93.10
7192;DHT22;3637;51.494;11.958;2023-04-24T15:56:25;14.10;93.10
7192;DHT22;3637;51.494;11.958;2023-04-24T15:59:27;14.20;93.10
7192;DHT22;3637;51.494;11.958;2023-04-24T16:02:29;13.70;93.70
7192;DHT22;3637;51.494;11.958;2023-04-24T16:05:32;13.50;94.50
7192;DHT22;3637;51.494;11.958;2023-04-24T16:08:36;13.40;94.00
7192;DHT22;3637;51.494;11.958;2023-04-24T16:11:39;13.30;94.20
7192;DHT22;3637;51.494;11.958;2023-04-24T16:14:41;13.60;94.70
7192;DHT22;3637;51.494;11.958;2023-04-24T16:17:43;14.00;95.40
7192;DHT22;3637;51.494;11.958;2023-04-24T16:20:45;13.40;95.10
7192;DHT22;3637;51.494;11.958;2023-04-24T16:23:48;13.60;95.60
7192;DHT22;3637;51.494;11.958;2023-04-24T16:26:51;13.60;95.30
7192;DHT22;3637;51.494;11.958;2023-04-24T16:29:53;12.80;95.20
7192;DHT22;3637;51.494;11.958;2023-04-24T16:32:55;13.40;95.50
7192;DHT22;3637;51.494;11.958;2023-04-24T16:35:56;13.10;95.50
7192;DHT22;3637;51.494;11.958;2023-04-24T16:39:00;12.80;95.70
7192;DHT22;3637;51.494;11.958;2023-04-24T16:42:04;12.70;95.30
7192;DHT22;3637;51.494;11.958;2023-04-24T16:45:07;12.60;95.80
7192;DHT22;3637;51.494;11.958;2023-04-24T16:48:09;12.50;95.90
7192;DHT22;3637;51.494;11.958;2023-04-24T16:51:11;13.60;96.30
7192;DHT22;3637;51.494;11.958;2023-04-24T16:54:16;12.60;96.00
7192;DHT22;3637;51.494;11.958;2023-04-24T16:57:18;12.70;96.40
7192;DHT22;3637;51.494;11.958;2023-04-24T17:00:21;12.60;97.00
7192;DHT22;3637;51.494;11.958;2023-04-24T17:03:24;12.40;96.70
7192;DHT22;3637;51.494;11.958;2023-04-24T17:06:26;12.50;97.00
7192;DHT22;3637;51.494;11.958;2023-04-24T17:09:30;12.90;97.30
7192;DHT22;3637;51.494;11.958;2023-04-24T17:12:31;13.40;97.70
7192;DHT22;3637;51.494;11.958;2023-04-24T17:15:33;12.00;97.20
7192;DHT22;3637;51.494;11.958;2023-04-24T17:18:35;13.10;97.70
7192;DHT22;3637;51.494;11.958;2023-04-24T17:21:37;12.30;98.00
7192;DHT22;3637;51.494;11.958;2023-04-24T17:24:40;12.20;97.60
7192;DHT22;3637;51.494;11.958;2023-04-24T17:27:43;12.40;97.90
7192;DHT22;3637;51.494;11.958;2023-04-24T17:30:46;12.20;97.80
7192;DHT22;3637;51.494;11.958;2023-04-24T17:33:48;12.20;98.10
7192;DHT22;3637;51.494;11.958;2023-04-24T17:36:50;12.60;98.40
7192;DHT22;3637;51.494;11.958;2023-04-24T17:39:53;12.70;98.40
7192;DHT22;3637;51.494;11.958;2023-04-24T17:42:55;12.00;98.20
7192;DHT22;3637;51.494;11.958;2023-04-24T17:45:57;12.40;98.60
7192;DHT22;3637;51.494;11.958;2023-04-24T17:49:03;12.20;98.90
7192;DHT22;3637;51.494;11.958;2023-04-24T17:52:19;11.80;98.80
7192;DHT22;3637;51.494;11.958;2023-04-24T17:55:25;12.00;99.40
7192;DHT22;3637;51.494;11.958;2023-04-24T17:58:28;11.60;99.40
7192;DHT22;3637;51.494;11.958;2023-04-24T18:01:30;11.50;99.80
7192;DHT22;3637;51.494;11.958;2023-04-24T18:04:32;11.70;99.90
7192;DHT22;3637;51.494;11.958;2023-04-24T18:07:34;11.90;99.90
7192;DHT22;3637;51.494;11.958;2023-04-24T18:10:37;12.30;99.90
7192;DHT22;3637;51.494;11.958;2023-04-24T18:13:39;12.00;99.90
7192;DHT22;3637;51.494;11.958;2023-04-24T18:16:41;12.30;99.90
7192;DHT22;3637;51.494;11.958;2023-04-24T18:19:46;11.90;99.90
7192;DHT22;3637;51.494;11.958;2023-04-24T18:22:48;11.60;99.90
7192;DHT22;3637;51.494;11.958;2023-04-24T18:25:51;11.80;99.90
7192;DHT22;3637;51.494;11.958;2023-04-24T18:28:53;11.70;99.90
7192;DHT22;3637;51.494;11.958;2023-04-24T18:31:59;11.40;99.90
7192;DHT22;3637;51.494;11.958;2023-04-24T18:35:01;11.20;99.80
7192;DHT22;3637;51.494;11.958;2023-04-24T18:38:03;12.20;99.90
7192;DHT22;3637;51.494;11.958;2023-04-24T18:41:06;11.10;99.90
7192;DHT22;3637;51.494;11.958;2023-04-24T18:44:08;11.40;99.90
7192;DHT22;3637;51.494;11.958;2023-04-24T18:47:11;11.10;99.90
7192;DHT22;3637;51.494;11.958;2023-04-24T18:50:13;11.70;99.90
7192;DHT22;3637;51.494;11.958;2023-04-24T18:53:15;11.60;99.90
7192;DHT22;3637;51.494;11.958;2023-04-24T18:56:19;11.10;99.90
7192;DHT22;3637;51.494;11.958;2023-04-24T18:59:20;11.10;99.90
7192;DHT22;3637;51.494;11.958;2023-04-24T19:02:22;11.10;99.90
7192;DHT22;3637;51.494;11.958;2023-04-24T19:05:24;11.00;99.90
7192;DHT22;3637;51.494;11.958;2023-04-24T19:08:26;10.30;99.90
7192;DHT22;3637;51.494;11.958;2023-04-24T19:11:29;11.40;99.90
7192;DHT22;3637;51.494;11.958;2023-04-24T19:14:31;10.90;99.90
7192;DHT22;3637;51.494;11.958;2023-04-24T19:17:33;11.00;99.90
7192;DHT22;3637;51.494;11.958;2023-04-24T19:20:35;10.30;99.90
7192;DHT22;3637;51.494;11.958;2023-04-24T19:23:39;10.80;99.90
7192;DHT22;3637;51.494;11.958;2023-04-24T19:26:42;11.20;99.90
7192;DHT22;3637;51.494;11.958;2023-04-24T19:29:44;10.60;99.90
7192;DHT22;3637;51.494;11.958;2023-04-24T19:32:46;10.60;99.90